createdAt,value
2023-03-11T00:00:28.828Z,101180.53
2023-03-11T00:02:57.484Z,101178.03
2023-03-11T00:05:28.502Z,101193.75
2023-03-11T00:07:55.462Z,101175.53
2023-03-11T00:10:30.147Z,101179.16
2023-03-11T00:12:58.044Z,101164.38
2023-03-11T00:15:25.248Z,101172.47
2023-03-11T00:17:52.098Z,101179.44
2023-03-11T00:20:25.431Z,101143.31
2023-03-11T00:22:52.792Z,101187.28
2023-03-11T00:25:20.012Z,101195.63
2023-03-11T00:27:46.944Z,101167.09
2023-03-11T00:30:14.570Z,101196.13
2023-03-11T00:32:41.435Z,101203.44
2023-03-11T00:35:09.134Z,101178.19
2023-03-11T00:37:35.963Z,101195.22
2023-03-11T00:40:02.988Z,101188.19
2023-03-11T00:42:29.819Z,101170.56
2023-03-11T00:44:57.269Z,101191.56
2023-03-11T00:47:24.124Z,101188.16
2023-03-11T00:49:51.008Z,101186.44
2023-03-11T00:52:17.956Z,101189.25
2023-03-11T00:54:46.350Z,101110.91
2023-03-11T00:57:13.135Z,101161.22
2023-03-11T00:59:39.978Z,101167.16
2023-03-11T01:02:06.752Z,101174.34
2023-03-11T01:04:33.572Z,101187.31
2023-03-11T01:07:00.456Z,101185.09
2023-03-11T01:09:27.301Z,101182.81
2023-03-11T01:11:54.482Z,101173.25
2023-03-11T01:14:21.375Z,101170.44
2023-03-11T01:16:48.138Z,101165.69
2023-03-11T01:19:15.115Z,101172.94
2023-03-11T01:21:43.304Z,101096.56
2023-03-11T01:24:10.071Z,101157.81
2023-03-11T01:26:36.986Z,101182.47
2023-03-11T01:29:04.056Z,101153.28
2023-03-11T01:31:30.899Z,101143.25
2023-03-11T01:33:57.913Z,101173.41
2023-03-11T01:36:24.714Z,101154.41
2023-03-11T01:38:51.520Z,101157.09
2023-03-11T01:41:18.376Z,101121.00
2023-03-11T01:43:45.173Z,101154.53
2023-03-11T01:46:22.013Z,101157.56
2023-03-11T01:48:50.678Z,101090.25
2023-03-11T01:51:39.843Z,101157.84
2023-03-11T01:54:33.786Z,101153.06
2023-03-11T01:57:01.218Z,101161.09
2023-03-11T01:59:31.176Z,101144.50
2023-03-11T02:02:20.957Z,101172.53
2023-03-11T02:04:47.801Z,101157.19
2023-03-11T02:07:14.849Z,101151.59
2023-03-11T02:09:42.110Z,101169.19
2023-03-11T02:12:10.064Z,101169.53
2023-03-11T02:14:36.827Z,101161.72
2023-03-11T02:17:03.753Z,101190.78
2023-03-11T02:19:50.814Z,101180.09
2023-03-11T02:22:17.729Z,101123.47
2023-03-11T02:25:02.630Z,101148.56
2023-03-11T02:27:29.836Z,101131.81
2023-03-11T02:29:57.045Z,101146.19
2023-03-11T02:32:23.969Z,101146.91
2023-03-11T02:34:50.767Z,101152.53
2023-03-11T02:37:17.842Z,101137.38
2023-03-11T02:39:49.692Z,101146.91
2023-03-11T02:42:26.749Z,101135.66
2023-03-11T02:45:14.510Z,101127.22
2023-03-11T02:47:41.521Z,101099.81
2023-03-11T02:50:09.927Z,101120.50
2023-03-11T02:52:36.724Z,101113.84
2023-03-11T02:55:04.021Z,101128.94
2023-03-11T02:57:30.861Z,101140.72
2023-03-11T02:59:57.707Z,101129.47
2023-03-11T03:02:24.604Z,101080.25
2023-03-11T03:04:51.596Z,101114.31
2023-03-11T03:07:18.445Z,101099.28
2023-03-11T03:09:45.200Z,101110.47
2023-03-11T03:12:12.234Z,101114.09
2023-03-11T03:14:39.027Z,101089.72
2023-03-11T03:17:06.058Z,101096.88
2023-03-11T03:19:33.028Z,101071.22
2023-03-11T03:21:59.871Z,101098.59
2023-03-11T03:24:26.669Z,101085.22
2023-03-11T03:26:53.754Z,101104.75
2023-03-11T03:29:20.779Z,101096.28
2023-03-11T03:31:47.622Z,101093.47
2023-03-11T03:34:14.498Z,101061.66
2023-03-11T03:36:41.243Z,101067.75
2023-03-11T03:39:08.080Z,101096.00
2023-03-11T03:41:35.170Z,101005.16
2023-03-11T03:44:02.072Z,101074.34
2023-03-11T03:46:28.997Z,101041.59
2023-03-11T03:48:56.025Z,101045.25
2023-03-11T03:51:22.804Z,101058.03
2023-03-11T03:53:49.547Z,101028.50
2023-03-11T03:56:17.540Z,101020.94
2023-03-11T03:58:44.482Z,101014.31
2023-03-11T04:01:13.221Z,101048.59
2023-03-11T04:03:40.296Z,101067.63
2023-03-11T04:06:12.206Z,101057.22
2023-03-11T04:08:40.749Z,101062.00
2023-03-11T04:11:07.609Z,101046.69
2023-03-11T04:13:34.447Z,101053.97
2023-03-11T04:16:03.757Z,101067.69
2023-03-11T04:18:30.801Z,101038.91
2023-03-11T04:20:57.586Z,101038.56
2023-03-11T04:23:24.582Z,101066.56
2023-03-11T04:25:51.471Z,101072.44
2023-03-11T04:28:18.409Z,101056.19
2023-03-11T04:30:45.448Z,101051.41
2023-03-11T04:33:12.214Z,101041.28
2023-03-11T04:35:39.507Z,101049.44
2023-03-11T04:38:06.393Z,101073.84
2023-03-11T04:40:33.302Z,101064.03
2023-03-11T04:43:00.182Z,101070.25
2023-03-11T04:45:26.926Z,101055.13
2023-03-11T04:47:53.685Z,101075.00
2023-03-11T04:50:20.465Z,101070.50
2023-03-11T04:52:47.616Z,101002.50
2023-03-11T04:55:14.757Z,101071.88
2023-03-11T04:57:42.233Z,100997.84
2023-03-11T05:00:12.030Z,101040.81
2023-03-11T05:02:39.124Z,101061.41
2023-03-11T05:05:06.605Z,101064.34
2023-03-11T05:07:33.339Z,101025.00
2023-03-11T05:10:00.233Z,101063.91
2023-03-11T05:12:27.016Z,101076.84
2023-03-11T05:14:53.771Z,101101.16
2023-03-11T05:17:20.644Z,101121.63
2023-03-11T05:19:47.457Z,101114.63
2023-03-11T05:22:14.242Z,101110.38
2023-03-11T05:24:41.243Z,101109.78
2023-03-11T05:27:08.084Z,101112.06
2023-03-11T05:29:34.852Z,101101.41
2023-03-11T05:32:01.840Z,101088.75
2023-03-11T05:34:28.599Z,101074.34
2023-03-11T05:36:55.362Z,101078.53
2023-03-11T05:39:22.175Z,101076.59
2023-03-11T05:41:49.124Z,101105.44
2023-03-11T05:44:15.985Z,101116.06
2023-03-11T05:46:43.012Z,101095.09
2023-03-11T05:49:09.818Z,101130.06
2023-03-11T05:51:37.755Z,101087.84
2023-03-11T05:54:04.697Z,101100.38
2023-03-11T05:56:31.468Z,101125.03
2023-03-11T05:58:58.603Z,101101.28
2023-03-11T06:01:25.518Z,101120.53
2023-03-11T06:03:52.460Z,101118.06
2023-03-11T06:06:19.418Z,101117.22
2023-03-11T06:08:50.142Z,101094.81
2023-03-11T06:11:17.214Z,101067.16
2023-03-11T06:13:44.001Z,101109.97
2023-03-11T06:16:10.917Z,101112.53
2023-03-11T06:18:37.752Z,101102.13
2023-03-11T06:21:04.787Z,101101.53
2023-03-11T06:23:31.881Z,101105.44
2023-03-11T06:26:05.427Z,101103.78
2023-03-11T06:28:32.579Z,101087.59
2023-03-11T06:31:24.440Z,101092.53
2023-03-11T06:33:51.730Z,101006.50
2023-03-11T06:36:19.110Z,101081.94
2023-03-11T06:38:46.867Z,101110.78
2023-03-11T06:41:13.726Z,101107.16
2023-03-11T06:43:40.681Z,101101.56
2023-03-11T06:46:12.232Z,101095.34
2023-03-11T06:48:39.298Z,101081.97
2023-03-11T06:51:06.142Z,101099.22
2023-03-11T06:53:32.933Z,101080.25
2023-03-11T06:56:03.328Z,101094.81
2023-03-11T06:58:30.702Z,101104.84
2023-03-11T07:01:08.405Z,101089.94
2023-03-11T07:03:35.179Z,101074.69
2023-03-11T07:06:02.021Z,101098.25
2023-03-11T07:08:29.165Z,101096.59
2023-03-11T07:11:07.324Z,101060.78
2023-03-11T07:13:34.326Z,101084.88
2023-03-11T07:16:12.532Z,101121.81
2023-03-11T07:18:39.532Z,101059.69
2023-03-11T07:21:06.990Z,101049.03
2023-03-11T07:23:33.842Z,101093.59
2023-03-11T07:26:00.932Z,101075.38
2023-03-11T07:28:28.118Z,101089.16
2023-03-11T07:30:55.128Z,101126.16
2023-03-11T07:33:24.290Z,101129.28
2023-03-11T07:35:51.521Z,101073.81
2023-03-11T07:38:19.817Z,101033.28
2023-03-11T07:40:46.760Z,101113.47
2023-03-11T07:43:13.747Z,101024.50
2023-03-11T07:45:40.722Z,101103.44
2023-03-11T07:48:07.644Z,101112.22
2023-03-11T07:50:36.231Z,101078.41
2023-03-11T07:53:03.078Z,101067.09
2023-03-11T07:55:30.026Z,101099.56
2023-03-11T07:57:56.870Z,101040.63
2023-03-11T08:00:23.760Z,101149.13
2023-03-11T08:02:50.816Z,101148.75
2023-03-11T08:05:18.717Z,101140.53
2023-03-11T08:07:45.547Z,101125.91
2023-03-11T08:10:12.721Z,101103.00
2023-03-11T08:12:39.561Z,101112.16
2023-03-11T08:15:06.974Z,101103.75
2023-03-11T08:17:33.922Z,101118.16
2023-03-11T08:20:00.774Z,101125.44
2023-03-11T08:22:28.782Z,101094.25
2023-03-11T08:24:56.809Z,101115.38
2023-03-11T08:27:23.598Z,101152.97
2023-03-11T08:29:50.387Z,101102.63
2023-03-11T08:32:17.568Z,101140.50
2023-03-11T08:34:44.551Z,101145.25
2023-03-11T08:37:11.535Z,101143.31
2023-03-11T08:39:38.547Z,101164.09
2023-03-11T08:42:05.603Z,101158.44
2023-03-11T08:44:32.548Z,101158.44
2023-03-11T08:47:00.690Z,101124.31
2023-03-11T08:49:27.608Z,101122.72
2023-03-11T08:51:54.840Z,101143.78
2023-03-11T08:54:21.931Z,101159.00
2023-03-11T08:56:49.035Z,101037.22
2023-03-11T08:59:15.861Z,101128.03
2023-03-11T09:01:43.041Z,101141.41
2023-03-11T09:04:09.984Z,101116.22
2023-03-11T09:06:36.867Z,101142.63
2023-03-11T09:09:04.220Z,101138.28
2023-03-11T09:11:31.030Z,101163.50
2023-03-11T09:13:57.963Z,101125.72
2023-03-11T09:16:25.347Z,101142.91
2023-03-11T09:18:52.256Z,101147.25
2023-03-11T09:21:19.068Z,101152.97
2023-03-11T09:23:45.999Z,101138.19
2023-03-11T09:26:13.068Z,101155.38
2023-03-11T09:28:40.692Z,101160.66
2023-03-11T09:31:07.635Z,101125.09
2023-03-11T09:33:39.304Z,101121.97
2023-03-11T09:36:07.355Z,101134.75
2023-03-11T09:38:34.230Z,101143.72
2023-03-11T09:41:04.340Z,101129.34
2023-03-11T09:43:40.509Z,101165.53
2023-03-11T09:46:13.504Z,101166.19
2023-03-11T09:49:05.706Z,101153.72
2023-03-11T09:51:35.247Z,101138.06
2023-03-11T09:54:14.500Z,101148.81
2023-03-11T09:56:44.377Z,101192.38
2023-03-11T09:59:20.886Z,101185.66
2023-03-11T10:01:49.130Z,101187.94
2023-03-11T10:04:19.056Z,101174.41
2023-03-11T10:06:46.632Z,101178.16
2023-03-11T10:09:22.420Z,101187.47
2023-03-11T10:12:24.492Z,101148.84
2023-03-11T10:15:12.689Z,101190.81
2023-03-11T10:17:53.353Z,101184.00
2023-03-11T10:20:39.034Z,101095.38
2023-03-11T10:23:14.682Z,101186.25
2023-03-11T10:26:00.161Z,101193.03
2023-03-11T10:28:37.732Z,101155.22
2023-03-11T10:31:25.239Z,101124.91
2023-03-11T10:34:01.570Z,101175.03
2023-03-11T10:36:54.508Z,101190.91
2023-03-11T10:39:21.560Z,101160.31
2023-03-11T10:42:00.603Z,101170.94
2023-03-11T10:44:41.306Z,101171.69
2023-03-11T10:47:23.144Z,101174.00
2023-03-11T10:49:50.460Z,101191.59
2023-03-11T10:52:17.252Z,101205.16
2023-03-11T10:54:48.298Z,101192.81
2023-03-11T10:57:33.620Z,101206.63
2023-03-11T11:00:12.680Z,101116.84
2023-03-11T11:02:43.261Z,101181.41
2023-03-11T11:05:16.586Z,101192.59
2023-03-11T11:07:50.745Z,101177.72
2023-03-11T11:10:17.786Z,101197.63
2023-03-11T11:13:13.602Z,101182.97
2023-03-11T11:15:41.830Z,101160.41
2023-03-11T11:18:17.900Z,101194.56
2023-03-11T11:21:03.966Z,101185.56
2023-03-11T11:23:35.101Z,101138.72
2023-03-11T11:26:04.913Z,101201.16
2023-03-11T11:28:33.037Z,101158.75
2023-03-11T11:31:04.941Z,101177.22
2023-03-11T11:33:34.049Z,101137.69
2023-03-11T11:36:03.146Z,101201.81
2023-03-11T11:38:30.554Z,101198.66
2023-03-11T11:41:00.232Z,101161.94
2023-03-11T11:43:47.072Z,101185.75
2023-03-11T11:46:37.823Z,101195.38
2023-03-11T11:49:13.726Z,101210.53
2023-03-11T11:51:43.302Z,101163.94
2023-03-11T11:54:43.656Z,101230.31
2023-03-11T11:57:15.565Z,101213.97
2023-03-11T11:59:43.025Z,101210.63
2023-03-11T12:02:38.121Z,101226.31
2023-03-11T12:05:09.773Z,101230.53
2023-03-11T12:08:04.844Z,101218.06
2023-03-11T12:10:40.229Z,101208.34
2023-03-11T12:13:29.306Z,101221.13
2023-03-11T12:16:12.820Z,101215.69
2023-03-11T12:19:11.008Z,101221.56
2023-03-11T12:22:02.654Z,101225.53
2023-03-11T12:24:59.904Z,101235.16
2023-03-11T12:27:45.495Z,101195.25
2023-03-11T12:30:33.035Z,101206.97
2023-03-11T12:33:02.604Z,101226.44
2023-03-11T12:35:33.342Z,101232.63
2023-03-11T12:38:12.352Z,101224.47
2023-03-11T12:40:49.864Z,101233.25
2023-03-11T12:43:30.259Z,101237.44
2023-03-11T12:46:00.911Z,101206.84
2023-03-11T12:48:27.554Z,101258.34
2023-03-11T12:50:57.623Z,101236.38
2023-03-11T12:53:42.899Z,101236.94
2023-03-11T12:56:45.169Z,101201.03
2023-03-11T12:59:57.173Z,101224.47
2023-03-11T13:02:54.894Z,101225.00
2023-03-11T13:05:28.516Z,101218.13
2023-03-11T13:08:01.012Z,101207.75
2023-03-11T13:10:36.205Z,101207.38
2023-03-11T13:13:03.481Z,101205.06
2023-03-11T13:15:33.598Z,101194.59
2023-03-11T13:18:00.790Z,101208.75
2023-03-11T13:20:43.365Z,101205.06
2023-03-11T13:23:13.256Z,101205.81
2023-03-11T13:25:53.873Z,101192.03
2023-03-11T13:28:28.375Z,101217.13
2023-03-11T13:31:17.146Z,101217.66
2023-03-11T13:33:54.605Z,101210.31
2023-03-11T13:36:39.508Z,101210.88
2023-03-11T13:39:24.892Z,101156.63
2023-03-11T13:41:51.735Z,101186.69
2023-03-11T13:44:24.728Z,101202.53
2023-03-11T13:46:58.668Z,101152.78
2023-03-11T13:49:47.247Z,101200.41
2023-03-11T13:52:27.450Z,101194.75
2023-03-11T13:55:00.456Z,101181.69
2023-03-11T13:57:29.953Z,101192.97
2023-03-11T13:59:56.851Z,101180.47
2023-03-11T14:02:25.571Z,101145.16
2023-03-11T14:04:58.372Z,101146.03
2023-03-11T14:07:34.606Z,101165.81
2023-03-11T14:10:16.722Z,101156.59
2023-03-11T14:12:43.559Z,101156.25
2023-03-11T14:15:23.678Z,101150.94
2023-03-11T14:17:54.037Z,101120.16
2023-03-11T14:20:23.961Z,101103.97
2023-03-11T14:22:52.386Z,101135.56
2023-03-11T14:25:26.961Z,101121.31
2023-03-11T14:27:56.065Z,101126.88
2023-03-11T14:30:28.231Z,101148.41
2023-03-11T14:32:58.025Z,101144.75
2023-03-11T14:35:25.045Z,101088.47
2023-03-11T14:37:52.736Z,101144.53
2023-03-11T14:40:26.094Z,101140.88
2023-03-11T14:42:55.077Z,101135.88
2023-03-11T14:45:23.319Z,101155.34
2023-03-11T14:48:03.695Z,101144.66
2023-03-11T14:50:32.918Z,101119.53
2023-03-11T14:53:10.294Z,101127.16
2023-03-11T14:55:44.588Z,101161.28
2023-03-11T14:58:32.865Z,101172.56
2023-03-11T15:01:10.573Z,101146.31
2023-03-11T15:03:45.582Z,101123.94
2023-03-11T15:06:15.287Z,101163.25
2023-03-11T15:09:04.803Z,101148.41
2023-03-11T15:11:33.061Z,101159.06
2023-03-11T15:14:22.337Z,101154.03
2023-03-11T15:16:50.909Z,101165.03
2023-03-11T15:19:31.642Z,101162.72
2023-03-11T15:22:05.878Z,101157.09
2023-03-11T15:24:32.907Z,101174.56
2023-03-11T15:27:07.605Z,101167.25
2023-03-11T15:29:35.040Z,101142.66
2023-03-11T15:32:34.452Z,101179.06
2023-03-11T15:35:04.932Z,101169.09
2023-03-11T15:37:31.946Z,101194.00
2023-03-11T15:39:58.933Z,101157.81
2023-03-11T15:42:26.604Z,101132.31
2023-03-11T15:45:03.427Z,101152.81
2023-03-11T15:47:30.688Z,101165.25
2023-03-11T15:49:57.457Z,101156.38
2023-03-11T15:52:24.367Z,101163.06
2023-03-11T15:54:55.721Z,101157.72
2023-03-11T15:57:25.361Z,101111.59
2023-03-11T15:59:52.471Z,101171.00
2023-03-11T16:02:24.076Z,101121.72
2023-03-11T16:04:51.140Z,101154.47
2023-03-11T16:07:21.796Z,101148.28
2023-03-11T16:09:56.226Z,101188.13
2023-03-11T16:12:23.758Z,101169.63
2023-03-11T16:14:50.888Z,101171.81
2023-03-11T16:17:19.169Z,101136.56
2023-03-11T16:19:47.996Z,101112.59
2023-03-11T16:22:40.612Z,101157.25
2023-03-11T16:25:09.000Z,101151.09
2023-03-11T16:27:35.886Z,101074.44
2023-03-11T16:30:02.970Z,101166.38
2023-03-11T16:32:29.767Z,101164.38
2023-03-11T16:34:56.549Z,101164.47
2023-03-11T16:37:23.386Z,101171.78
2023-03-11T16:39:50.131Z,101181.78
2023-03-11T16:42:22.252Z,101084.53
2023-03-11T16:44:49.191Z,101185.16
2023-03-11T16:47:15.967Z,101086.28
2023-03-11T16:49:42.732Z,101158.34
2023-03-11T16:52:09.619Z,101169.44
2023-03-11T16:54:36.508Z,101178.97
2023-03-11T16:57:03.378Z,101166.00
2023-03-11T16:59:30.299Z,101123.00
2023-03-11T17:01:57.303Z,101106.75
2023-03-11T17:04:24.099Z,101154.81
2023-03-11T17:06:50.922Z,101156.28
2023-03-11T17:09:17.811Z,101134.28
2023-03-11T17:11:44.618Z,101134.50
2023-03-11T17:14:16.685Z,101133.66
2023-03-11T17:16:45.277Z,101119.03
2023-03-11T17:19:12.205Z,101150.31
2023-03-11T17:21:39.485Z,101155.03
2023-03-11T17:24:07.329Z,101132.13
2023-03-11T17:26:34.298Z,101148.66
2023-03-11T17:29:01.290Z,101159.84
2023-03-11T17:31:28.303Z,101147.06
2023-03-11T17:33:55.305Z,101144.34
2023-03-11T17:36:22.110Z,101116.31
2023-03-11T17:38:51.350Z,101161.59
2023-03-11T17:41:18.393Z,101134.28
2023-03-11T17:43:46.129Z,101159.41
2023-03-11T17:46:17.307Z,101106.28
2023-03-11T17:48:45.060Z,101143.19
2023-03-11T17:51:13.805Z,101121.63
2023-03-11T17:53:40.999Z,101108.00
2023-03-11T17:56:08.120Z,101098.63
2023-03-11T17:58:35.145Z,101156.84
2023-03-11T18:01:06.354Z,101132.28
2023-03-11T18:03:33.476Z,101144.66
2023-03-11T18:06:04.657Z,101147.00
2023-03-11T18:08:31.820Z,101088.31
2023-03-11T18:11:00.582Z,101064.22
2023-03-11T18:13:27.440Z,101154.47
2023-03-11T18:16:04.635Z,101118.13
2023-03-11T18:18:31.798Z,101151.50
2023-03-11T18:21:05.778Z,101150.34
2023-03-11T18:23:35.707Z,101125.91
2023-03-11T18:26:03.785Z,101125.91
2023-03-11T18:28:30.668Z,101163.69
2023-03-11T18:31:05.293Z,101137.88
2023-03-11T18:33:32.162Z,101132.03
2023-03-11T18:35:58.981Z,101176.94
2023-03-11T18:38:25.778Z,101144.69
2023-03-11T18:40:58.825Z,101178.94
2023-03-11T18:43:25.603Z,101169.19
2023-03-11T18:45:52.374Z,101180.94
2023-03-11T18:48:19.383Z,101188.56
2023-03-11T18:50:52.181Z,101142.97
2023-03-11T18:53:21.161Z,101155.88
2023-03-11T18:55:48.957Z,101183.59
2023-03-11T18:58:15.720Z,101165.16
2023-03-11T19:00:42.590Z,101153.41
2023-03-11T19:03:12.658Z,101097.00
2023-03-11T19:05:39.474Z,101193.78
2023-03-11T19:08:06.369Z,101205.00
2023-03-11T19:10:33.201Z,101191.19
2023-03-11T19:12:59.947Z,101190.47
2023-03-11T19:15:26.740Z,101176.81
2023-03-11T19:18:05.830Z,101195.50
2023-03-11T19:20:34.064Z,101144.97
2023-03-11T19:23:00.921Z,101193.28
2023-03-11T19:25:28.114Z,101170.41
2023-03-11T19:27:55.510Z,101190.22
2023-03-11T19:30:22.681Z,101213.84
2023-03-11T19:32:53.049Z,101202.56
2023-03-11T19:35:21.396Z,101122.94
2023-03-11T19:37:48.785Z,101193.09
2023-03-11T19:40:15.819Z,101176.94
2023-03-11T19:42:42.750Z,101224.50
2023-03-11T19:45:10.024Z,101209.66
2023-03-11T19:47:37.329Z,101185.34
2023-03-11T19:50:04.451Z,101215.06
2023-03-11T19:52:31.219Z,101176.03
2023-03-11T19:54:57.980Z,101223.59
2023-03-11T19:57:24.961Z,101224.88
2023-03-11T19:59:51.698Z,101194.44
2023-03-11T20:02:18.556Z,101224.06
2023-03-11T20:04:45.450Z,101224.88
2023-03-11T20:07:12.234Z,101204.84
2023-03-11T20:09:39.036Z,101232.78
2023-03-11T20:12:06.140Z,101237.59
2023-03-11T20:14:32.886Z,101209.09
2023-03-11T20:16:59.641Z,101229.16
2023-03-11T20:19:26.691Z,101220.13
2023-03-11T20:21:53.523Z,101226.94
2023-03-11T20:24:20.407Z,101210.09
2023-03-11T20:26:49.951Z,101238.66
2023-03-11T20:29:17.884Z,101225.19
2023-03-11T20:31:44.827Z,101189.41
2023-03-11T20:34:12.726Z,101220.69
2023-03-11T20:36:39.519Z,101210.16
2023-03-11T20:39:09.437Z,101206.97
2023-03-11T20:41:38.315Z,101202.03
2023-03-11T20:44:06.469Z,101165.91
2023-03-11T20:46:34.105Z,101215.66
2023-03-11T20:49:01.763Z,101230.53
2023-03-11T20:51:28.689Z,101229.69
2023-03-11T20:53:55.458Z,101230.81
2023-03-11T20:56:24.182Z,101232.78
2023-03-11T20:58:51.368Z,101230.28
2023-03-11T21:01:27.255Z,101181.06
2023-03-11T21:03:55.040Z,101202.63
2023-03-11T21:06:32.862Z,101211.00
2023-03-11T21:09:01.081Z,101232.88
2023-03-11T21:11:27.902Z,101220.38
2023-03-11T21:13:55.082Z,101236.59
2023-03-11T21:16:22.178Z,101239.88
2023-03-11T21:18:49.670Z,101249.72
2023-03-11T21:21:17.254Z,101244.06
2023-03-11T21:23:44.335Z,101232.19
2023-03-11T21:26:12.674Z,101240.56
2023-03-11T21:28:40.291Z,101221.09
2023-03-11T21:31:11.184Z,101259.09
2023-03-11T21:33:38.794Z,101235.53
2023-03-11T21:36:06.680Z,101220.13
2023-03-11T21:38:33.992Z,101221.56
2023-03-11T21:41:21.088Z,101259.59
2023-03-11T21:43:48.357Z,101251.50
2023-03-11T21:46:17.334Z,101200.81
2023-03-11T21:48:44.313Z,101212.63
2023-03-11T21:51:11.129Z,101246.19
2023-03-11T21:53:37.953Z,101223.34
2023-03-11T21:56:05.558Z,101243.50
2023-03-11T21:58:33.011Z,101249.38
2023-03-11T22:01:00.160Z,101208.88
2023-03-11T22:03:27.510Z,101235.13
2023-03-11T22:05:58.988Z,101237.41
2023-03-11T22:08:26.286Z,101209.53
2023-03-11T22:10:53.217Z,101240.03
2023-03-11T22:13:20.297Z,101230.25
2023-03-11T22:15:47.287Z,101210.97
2023-03-11T22:18:14.394Z,101225.31
2023-03-11T22:20:41.364Z,101256.66
2023-03-11T22:23:08.326Z,101245.97
2023-03-11T22:25:35.071Z,101232.84
2023-03-11T22:28:02.143Z,101203.50
2023-03-11T22:30:29.015Z,101235.38
2023-03-11T22:32:55.974Z,101199.00
2023-03-11T22:35:22.869Z,101210.19
2023-03-11T22:37:49.732Z,101198.41
2023-03-11T22:40:16.516Z,101207.19
2023-03-11T22:42:43.427Z,101232.72
2023-03-11T22:45:10.645Z,101174.69
2023-03-11T22:47:37.512Z,101220.63
2023-03-11T22:50:05.101Z,101204.06
2023-03-11T22:52:31.850Z,101187.63
2023-03-11T22:54:58.676Z,101219.78
2023-03-11T22:57:25.569Z,101130.84
2023-03-11T22:59:52.442Z,101213.94
2023-03-11T23:02:19.215Z,101193.38
2023-03-11T23:04:46.140Z,101174.97
2023-03-11T23:07:12.899Z,101196.28
2023-03-11T23:09:39.717Z,101157.94
2023-03-11T23:12:07.293Z,101154.31
2023-03-11T23:14:44.424Z,101188.69
2023-03-11T23:17:12.500Z,101166.47
2023-03-11T23:19:39.335Z,101118.13
2023-03-11T23:22:07.077Z,101176.78
2023-03-11T23:24:34.288Z,101076.38
2023-03-11T23:27:04.920Z,101179.63
2023-03-11T23:29:32.110Z,101160.28
2023-03-11T23:31:59.011Z,101143.50
2023-03-11T23:34:25.757Z,101166.72
2023-03-11T23:36:52.469Z,101159.47
2023-03-11T23:39:19.309Z,101151.09
2023-03-11T23:41:46.589Z,101090.78
2023-03-11T23:44:14.491Z,101169.19
2023-03-11T23:46:41.306Z,101147.59
2023-03-11T23:49:08.136Z,101181.47
2023-03-11T23:51:34.999Z,101171.06
2023-03-11T23:54:01.904Z,101181.97
2023-03-11T23:56:28.671Z,101184.78
2023-03-11T23:58:55.486Z,101124.34
